Time;durP1;ratioP1;P1;durP2;ratioP2;P2;SDS_P1;SDS_P2;PMS_P1;PMS_P2;Temp;Humidity;BMP_temperature;BMP_pressure;BME280_temperature;BME280_humidity;BME280_pressure;Samples;Min_cycle;Max_cycle;Signal;HPM_P1;HPM_P2
2023/02/10 00:00:33;;;;;;;1.65;1.58;;;;;;;;;;5113955;28;20054;-86
2023/02/10 00:02:59;;;;;;;1.95;1.85;;;;;;;;;;5114472;28;20052;-85
2023/02/10 00:05:27;;;;;;;0.50;0.50;;;;;;;;;;5114202;28;20548;-85
2023/02/10 00:07:54;;;;;;;0.40;0.40;;;;;;;;;;5113791;28;20055;-86
2023/02/10 00:10:20;;;;;;;1.20;1.15;;;;;;;;;;5114288;28;20092;-86
2023/02/10 00:12:47;;;;;;;0.77;0.77;;;;;;;;;;5113894;28;20305;-85
2023/02/10 00:15:13;;;;;;;1.20;1.20;;;;;;;;;;5108725;28;20093;-86
2023/02/10 00:17:40;;;;;;;0.82;0.80;;;;;;;;;;5113625;28;20463;-86
2023/02/10 00:20:07;;;;;;;0.90;0.90;;;;;;;;;;5113915;28;20504;-86
2023/02/10 00:22:35;;;;;;;0.93;0.93;;;;;;;;;;5113729;28;20139;-86
2023/02/10 00:25:02;;;;;;;2.65;1.63;;;;;;;;;;5113297;28;20116;-87
2023/02/10 00:27:28;;;;;;;1.33;1.27;;;;;;;;;;5113569;28;20101;-86
2023/02/10 00:29:55;;;;;;;1.42;1.38;;;;;;;;;;5112739;28;20461;-85
2023/02/10 00:32:21;;;;;;;1.33;1.23;;;;;;;;;;5105697;28;20056;-85
2023/02/10 00:34:48;;;;;;;0.73;0.73;;;;;;;;;;5093328;28;20044;-85
2023/02/10 00:37:14;;;;;;;1.08;1.08;;;;;;;;;;5099811;28;20040;-85
2023/02/10 00:39:43;;;;;;;1.65;1.55;;;;;;;;;;5113297;28;20058;-86
2023/02/10 00:42:09;;;;;;;2.53;2.33;;;;;;;;;;5109369;28;20093;-86
2023/02/10 00:44:36;;;;;;;1.42;1.33;;;;;;;;;;5096598;28;20048;-85
2023/02/10 00:47:02;;;;;;;1.65;1.55;;;;;;;;;;5097481;28;20100;-86
2023/02/10 00:49:29;;;;;;;0.85;0.85;;;;;;;;;;5113460;28;20093;-86
2023/02/10 00:51:57;;;;;;;0.75;0.75;;;;;;;;;;5113318;28;20092;-86
2023/02/10 00:54:23;;;;;;;0.65;0.63;;;;;;;;;;5113303;28;20047;-86
2023/02/10 00:56:51;;;;;;;2.65;2.45;;;;;;;;;;5112914;28;20458;-85
2023/02/10 00:59:19;;;;;;;1.63;1.52;;;;;;;;;;5108968;28;20042;-86
2023/02/10 01:01:46;;;;;;;2.03;1.92;;;;;;;;;;5113308;28;20052;-86
2023/02/10 01:04:13;;;;;;;0.65;0.65;;;;;;;;;;5113352;28;20462;-86
2023/02/10 01:06:39;;;;;;;1.00;0.95;;;;;;;;;;5112777;28;20043;-86
2023/02/10 01:09:06;;;;;;;1.30;1.20;;;;;;;;;;5112878;28;20039;-85
2023/02/10 01:11:32;;;;;;;1.02;1.02;;;;;;;;;;5113212;28;20055;-87
2023/02/10 01:14:00;;;;;;;1.08;1.08;;;;;;;;;;5112796;28;20039;-86
2023/02/10 01:16:27;;;;;;;4.00;1.88;;;;;;;;;;5107249;28;20043;-85
2023/02/10 01:18:53;;;;;;;0.43;0.43;;;;;;;;;;5112610;28;20044;-87
2023/02/10 01:21:20;;;;;;;0.95;0.95;;;;;;;;;;5112848;28;20185;-86
2023/02/10 01:23:47;;;;;;;4.82;2.95;;;;;;;;;;5112243;28;20048;-86
2023/02/10 01:26:14;;;;;;;1.85;1.75;;;;;;;;;;5112311;28;20458;-86
2023/02/10 01:28:41;;;;;;;1.05;1.05;;;;;;;;;;5112553;28;20096;-86
2023/02/10 01:31:11;;;;;;;1.02;1.02;;;;;;;;;;5112632;28;20451;-86
2023/02/10 01:33:37;;;;;;;1.25;1.15;;;;;;;;;;5106638;28;20111;-86
2023/02/10 01:36:05;;;;;;;1.13;1.13;;;;;;;;;;5112610;28;20048;-86
2023/02/10 01:38:32;;;;;;;1.42;1.33;;;;;;;;;;5112583;28;20445;-86
2023/02/10 01:40:58;;;;;;;1.02;1.02;;;;;;;;;;5112334;28;20071;-86
2023/02/10 01:43:25;;;;;;;0.50;0.50;;;;;;;;;;5112804;28;20055;-86
2023/02/10 01:45:51;;;;;;;2.30;2.20;;;;;;;;;;5112713;28;20100;-86
2023/02/10 01:48:20;;;;;;;1.60;1.50;;;;;;;;;;5112409;28;20048;-85
2023/02/10 01:50:48;;;;;;;0.50;0.50;;;;;;;;;;5112411;28;20055;-86
2023/02/10 01:53:15;;;;;;;2.20;2.00;;;;;;;;;;5105447;28;20476;-85
2023/02/10 01:55:45;;;;;;;0.85;0.85;;;;;;;;;;5112034;28;20063;-86
2023/02/10 01:58:13;;;;;;;0.88;0.88;;;;;;;;;;5112445;28;20366;-86
2023/02/10 02:00:39;;;;;;;1.52;1.42;;;;;;;;;;5112339;28;20040;-86
2023/02/10 02:03:06;;;;;;;1.05;1.05;;;;;;;;;;5112453;28;20048;-86
2023/02/10 02:05:35;;;;;;;1.08;1.08;;;;;;;;;;5112351;28;20052;-86
2023/02/10 02:08:04;;;;;;;1.38;1.02;;;;;;;;;;5108105;28;20105;-90
2023/02/10 02:10:38;;;;;;;1.00;1.00;;;;;;;;;;5111247;28;20047;-86
2023/02/10 02:13:07;;;;;;;1.10;1.10;;;;;;;;;;5112373;28;20051;-86
2023/02/10 02:15:38;;;;;;;1.05;1.02;;;;;;;;;;5112241;28;20450;-86
2023/02/10 02:18:07;;;;;;;1.13;1.13;;;;;;;;;;5111925;28;20043;-85
2023/02/10 02:20:49;;;;;;;1.52;1.42;;;;;;;;;;5111943;28;20104;-85
2023/02/10 02:23:29;;;;;;;0.57;0.57;;;;;;;;;;5111958;28;20462;-85
2023/02/10 02:26:14;;;;;;;2.17;2.05;;;;;;;;;;5107668;28;20079;-86
2023/02/10 02:28:47;;;;;;;0.57;0.57;;;;;;;;;;5104459;28;20056;-87
2023/02/10 02:31:28;;;;;;;1.23;1.13;;;;;;;;;;5111813;28;20547;-86
2023/02/10 02:33:58;;;;;;;1.42;1.42;;;;;;;;;;5092015;28;20047;-85
2023/02/10 02:36:28;;;;;;;1.45;1.35;;;;;;;;;;5091500;28;20105;-86
2023/02/10 02:38:59;;;;;;;1.33;1.30;;;;;;;;;;5091620;28;20048;-85
2023/02/10 02:41:26;;;;;;;0.95;0.95;;;;;;;;;;5091723;28;20125;-86
2023/02/10 02:43:52;;;;;;;0.70;0.70;;;;;;;;;;5077745;28;20048;-86
2023/02/10 02:46:23;;;;;;;1.13;1.13;;;;;;;;;;5071495;28;20056;-86
2023/02/10 02:48:55;;;;;;;0.93;0.93;;;;;;;;;;5084199;28;20048;-86
2023/02/10 02:51:28;;;;;;;1.60;1.50;;;;;;;;;;5091663;28;20051;-86
2023/02/10 02:53:59;;;;;;;1.15;1.15;;;;;;;;;;5094469;28;20109;-86
2023/02/10 02:56:28;;;;;;;1.48;1.38;;;;;;;;;;5094936;28;20060;-87
2023/02/10 02:58:57;;;;;;;2.05;1.95;;;;;;;;;;5095081;28;20500;-86
2023/02/10 03:01:26;;;;;;;1.55;1.52;;;;;;;;;;5077449;28;20045;-86
2023/02/10 03:03:53;;;;;;;1.63;1.52;;;;;;;;;;5087431;28;20051;-86
2023/02/10 03:06:20;;;;;;;0.55;0.55;;;;;;;;;;5095181;28;20051;-85
2023/02/10 03:08:48;;;;;;;2.95;2.65;;;;;;;;;;5094697;28;20040;-85
2023/02/10 03:11:14;;;;;;;1.05;1.05;;;;;;;;;;5094927;28;20492;-85
2023/02/10 03:13:41;;;;;;;1.42;1.35;;;;;;;;;;5094739;28;20056;-86
2023/02/10 03:16:07;;;;;;;0.45;0.45;;;;;;;;;;5094875;28;20105;-85
2023/02/10 03:18:34;;;;;;;0.98;0.95;;;;;;;;;;5088739;28;20055;-85
2023/02/10 03:21:00;;;;;;;2.10;2.00;;;;;;;;;;5094658;28;20048;-86
2023/02/10 03:23:27;;;;;;;0.70;0.70;;;;;;;;;;5094447;28;20055;-85
2023/02/10 03:25:55;;;;;;;0.82;0.82;;;;;;;;;;5094493;28;20048;-86
2023/02/10 03:28:21;;;;;;;2.10;2.00;;;;;;;;;;5094833;28;20044;-85
2023/02/10 03:30:49;;;;;;;1.17;1.17;;;;;;;;;;5094475;28;20056;-86
2023/02/10 03:33:16;;;;;;;0.68;0.63;;;;;;;;;;5094161;28;20044;-85
2023/02/10 03:35:43;;;;;;;2.90;2.72;;;;;;;;;;5089014;28;20105;-85
2023/02/10 03:38:09;;;;;;;1.48;1.45;;;;;;;;;;5094270;28;20542;-85
2023/02/10 03:40:36;;;;;;;1.38;1.33;;;;;;;;;;5093638;28;20112;-86
2023/02/10 03:43:04;;;;;;;2.53;2.33;;;;;;;;;;5094236;28;20420;-85
2023/02/10 03:45:31;;;;;;;1.00;0.98;;;;;;;;;;5095251;28;20094;-85
2023/02/10 03:47:58;;;;;;;1.85;1.75;;;;;;;;;;5093845;28;20048;-86
2023/02/10 03:50:25;;;;;;;0.40;0.40;;;;;;;;;;5094439;28;20472;-86
2023/02/10 03:52:51;;;;;;;1.50;1.40;;;;;;;;;;5088646;28;20040;-86
2023/02/10 03:55:19;;;;;;;2.45;2.35;;;;;;;;;;5074625;28;20061;-86
2023/02/10 03:57:45;;;;;;;1.20;1.20;;;;;;;;;;5074068;28;20053;-87
2023/02/10 04:00:15;;;;;;;0.85;0.85;;;;;;;;;;5073905;28;20048;-86
2023/02/10 04:02:41;;;;;;;1.25;1.15;;;;;;;;;;5073712;28;20052;-87
2023/02/10 04:05:08;;;;;;;1.27;1.23;;;;;;;;;;5093136;28;20086;-86
2023/02/10 04:07:34;;;;;;;2.08;1.98;;;;;;;;;;5094040;28;20135;-86
2023/02/10 04:10:01;;;;;;;1.42;1.38;;;;;;;;;;5093618;28;20113;-86
2023/02/10 04:12:28;;;;;;;2.80;2.70;;;;;;;;;;5088743;28;20052;-85
2023/02/10 04:14:54;;;;;;;1.40;1.30;;;;;;;;;;5093554;28;20044;-85
2023/02/10 04:17:22;;;;;;;2.25;2.15;;;;;;;;;;5093482;28;20056;-86
2023/02/10 04:19:49;;;;;;;1.58;1.52;;;;;;;;;;5093421;28;20048;-86
2023/02/10 04:22:15;;;;;;;1.30;1.27;;;;;;;;;;5093496;28;20056;-86
2023/02/10 04:24:42;;;;;;;1.05;1.02;;;;;;;;;;5093006;28;20056;-86
2023/02/10 04:27:08;;;;;;;1.27;1.23;;;;;;;;;;5092962;28;20047;-86
2023/02/10 04:29:38;;;;;;;1.77;1.70;;;;;;;;;;5088099;28;20044;-86
2023/02/10 04:32:05;;;;;;;3.53;3.33;;;;;;;;;;5092726;28;20056;-86
2023/02/10 04:34:33;;;;;;;2.28;1.90;;;;;;;;;;5092860;28;20056;-86
2023/02/10 04:36:59;;;;;;;0.80;0.80;;;;;;;;;;5093016;28;20059;-86
2023/02/10 04:39:26;;;;;;;1.23;1.20;;;;;;;;;;5092901;28;20044;-86
2023/02/10 04:41:53;;;;;;;0.82;0.82;;;;;;;;;;5093180;28;20048;-86
2023/02/10 04:44:19;;;;;;;0.82;0.82;;;;;;;;;;5093016;28;20052;-86
2023/02/10 04:46:46;;;;;;;0.90;0.90;;;;;;;;;;5087957;28;20051;-86
2023/02/10 04:49:12;;;;;;;0.55;0.55;;;;;;;;;;5093595;28;20458;-86
2023/02/10 04:51:40;;;;;;;2.45;2.30;;;;;;;;;;5092874;28;20097;-85
2023/02/10 04:54:07;;;;;;;1.38;1.27;;;;;;;;;;5092988;28;20187;-85
2023/02/10 04:56:33;;;;;;;0.85;0.85;;;;;;;;;;5092552;28;20197;-85
2023/02/10 04:58:59;;;;;;;1.40;1.38;;;;;;;;;;5092827;28;20040;-85
2023/02/10 05:01:26;;;;;;;1.80;1.70;;;;;;;;;;5087223;28;20065;-86
2023/02/10 05:03:53;;;;;;;0.88;0.88;;;;;;;;;;5092476;28;20048;-86
2023/02/10 05:06:19;;;;;;;0.85;0.85;;;;;;;;;;5092931;28;20048;-85
2023/02/10 05:08:49;;;;;;;0.70;0.70;;;;;;;;;;5092673;28;20051;-86
2023/02/10 05:11:16;;;;;;;0.90;0.90;;;;;;;;;;5092862;28;20097;-85
2023/02/10 05:13:42;;;;;;;1.02;1.02;;;;;;;;;;5092163;28;21099;-86
2023/02/10 05:16:09;;;;;;;2.03;1.92;;;;;;;;;;5091444;28;20052;-85
2023/02/10 05:18:35;;;;;;;1.05;0.95;;;;;;;;;;5090368;28;20109;-86
2023/02/10 05:21:02;;;;;;;5.07;4.72;;;;;;;;;;5081834;28;20096;-86
2023/02/10 05:23:29;;;;;;;1.00;1.00;;;;;;;;;;5091693;28;20124;-86
2023/02/10 05:25:57;;;;;;;0.85;0.85;;;;;;;;;;5088707;28;20051;-86
2023/02/10 05:28:24;;;;;;;1.52;1.42;;;;;;;;;;5092080;28;20101;-86
2023/02/10 05:30:50;;;;;;;1.63;1.52;;;;;;;;;;5091203;28;20040;-87
2023/02/10 05:33:17;;;;;;;3.72;3.53;;;;;;;;;;5090571;28;20458;-86
2023/02/10 05:35:43;;;;;;;1.60;1.50;;;;;;;;;;5089289;28;20485;-86
2023/02/10 05:38:10;;;;;;;4.00;3.60;;;;;;;;;;5086765;28;20055;-87
2023/02/10 05:40:37;;;;;;;1.52;1.42;;;;;;;;;;5086886;28;20047;-86
2023/02/10 05:43:06;;;;;;;0.75;0.75;;;;;;;;;;5090735;28;20101;-85
2023/02/10 05:45:32;;;;;;;2.88;2.75;;;;;;;;;;5092179;28;20113;-86
2023/02/10 05:47:59;;;;;;;1.40;1.30;;;;;;;;;;5092044;28;20485;-85
2023/02/10 05:50:25;;;;;;;1.55;1.45;;;;;;;;;;5091325;28;20063;-85
2023/02/10 05:52:52;;;;;;;1.40;1.38;;;;;;;;;;5092157;28;20101;-84
2023/02/10 05:55:18;;;;;;;0.68;0.60;;;;;;;;;;5091739;28;20496;-85
2023/02/10 05:57:45;;;;;;;1.10;1.08;;;;;;;;;;5081488;28;20052;-85
2023/02/10 06:00:14;;;;;;;3.70;3.35;;;;;;;;;;5091614;28;20079;-85
2023/02/10 06:02:41;;;;;;;1.25;1.15;;;;;;;;;;5091874;28;20047;-85
2023/02/10 06:05:07;;;;;;;1.30;1.20;;;;;;;;;;5091958;28;20066;-85
2023/02/10 06:07:34;;;;;;;5.05;3.10;;;;;;;;;;5091722;28;20048;-85
2023/02/10 06:10:00;;;;;;;1.80;1.67;;;;;;;;;;5088099;28;20505;-85
2023/02/10 06:12:27;;;;;;;6.03;5.57;;;;;;;;;;5083440;28;20044;-85
2023/02/10 06:14:53;;;;;;;2.53;2.42;;;;;;;;;;5087657;28;20047;-85
2023/02/10 06:17:21;;;;;;;2.72;2.53;;;;;;;;;;5090455;28;20101;-85
2023/02/10 06:19:48;;;;;;;1.00;1.00;;;;;;;;;;5091556;28;20059;-85
2023/02/10 06:22:14;;;;;;;1.85;1.75;;;;;;;;;;5091664;28;20044;-84
2023/02/10 06:24:42;;;;;;;1.55;1.45;;;;;;;;;;5091518;28;20055;-85
2023/02/10 06:27:08;;;;;;;1.77;1.75;;;;;;;;;;5090850;28;20079;-86
2023/02/10 06:29:35;;;;;;;1.70;1.60;;;;;;;;;;5090280;28;20097;-85
2023/02/10 06:32:02;;;;;;;2.08;1.95;;;;;;;;;;5095083;28;20089;-85
2023/02/10 06:34:30;;;;;;;1.90;1.80;;;;;;;;;;5095435;28;20077;-84
2023/02/10 06:36:56;;;;;;;1.40;1.30;;;;;;;;;;5095224;28;20048;-86
2023/02/10 06:39:23;;;;;;;5.07;1.17;;;;;;;;;;5095516;28;20044;-86
2023/02/10 06:41:49;;;;;;;5.28;3.92;;;;;;;;;;5095282;28;20044;-86
2023/02/10 06:44:16;;;;;;;3.28;3.08;;;;;;;;;;5095792;28;20048;-86
2023/02/10 06:46:42;;;;;;;2.60;2.50;;;;;;;;;;5087610;28;20097;-86
2023/02/10 06:49:09;;;;;;;1.90;1.65;;;;;;;;;;5093308;28;20044;-86
2023/02/10 06:51:37;;;;;;;1.65;1.55;;;;;;;;;;5095361;28;20101;-87
2023/02/10 06:54:03;;;;;;;0.85;0.82;;;;;;;;;;5094956;28;20044;-86
2023/02/10 06:56:30;;;;;;;2.28;2.17;;;;;;;;;;5095120;28;20549;-86
2023/02/10 06:58:56;;;;;;;1.80;1.70;;;;;;;;;;5095475;28;20052;-86
2023/02/10 07:01:23;;;;;;;3.38;2.78;;;;;;;;;;5095467;28;20048;-86
2023/02/10 07:03:49;;;;;;;2.47;2.28;;;;;;;;;;5091704;28;20048;-86
2023/02/10 07:06:18;;;;;;;1.23;1.23;;;;;;;;;;5093568;28;20078;-86
2023/02/10 07:08:46;;;;;;;1.70;1.60;;;;;;;;;;5091575;28;20506;-86
2023/02/10 07:11:12;;;;;;;2.63;2.42;;;;;;;;;;5094686;28;20040;-86
2023/02/10 07:13:39;;;;;;;1.02;1.02;;;;;;;;;;5095158;28;20454;-86
2023/02/10 07:16:05;;;;;;;1.15;1.15;;;;;;;;;;5094552;28;20040;-86
2023/02/10 07:18:32;;;;;;;2.85;2.13;;;;;;;;;;5094797;28;20060;-86
2023/02/10 07:20:58;;;;;;;3.17;2.95;;;;;;;;;;5090894;28;20097;-87
2023/02/10 07:23:25;;;;;;;1.70;1.60;;;;;;;;;;5096608;28;20048;-86
2023/02/10 07:25:53;;;;;;;2.17;1.98;;;;;;;;;;5099548;28;20104;-86
2023/02/10 07:28:20;;;;;;;0.88;0.88;;;;;;;;;;5099116;28;20048;-86
2023/02/10 07:30:46;;;;;;;1.88;1.77;;;;;;;;;;5097232;28;20443;-86
2023/02/10 07:33:13;;;;;;;1.30;1.20;;;;;;;;;;5094776;28;20044;-86
2023/02/10 07:35:39;;;;;;;1.55;1.52;;;;;;;;;;5094174;28;20048;-86
2023/02/10 07:38:06;;;;;;;0.82;0.82;;;;;;;;;;5093937;28;20044;-87
2023/02/10 07:40:32;;;;;;;2.72;2.63;;;;;;;;;;5083788;28;20091;-86
2023/02/10 07:43:00;;;;;;;4.35;2.95;;;;;;;;;;5074500;28;20051;-86
2023/02/10 07:45:30;;;;;;;1.58;1.52;;;;;;;;;;5084170;28;20748;-86
2023/02/10 07:47:57;;;;;;;2.13;2.03;;;;;;;;;;5094266;28;20523;-87
2023/02/10 07:50:23;;;;;;;2.00;1.90;;;;;;;;;;5093960;28;20085;-85
2023/02/10 07:52:50;;;;;;;3.05;2.85;;;;;;;;;;5094254;28;20048;-86
2023/02/10 07:55:17;;;;;;;2.03;1.92;;;;;;;;;;5094077;28;20129;-86
2023/02/10 07:57:43;;;;;;;4.45;4.15;;;;;;;;;;5090852;28;20097;-87
2023/02/10 08:00:13;;;;;;;3.75;3.55;;;;;;;;;;5084079;28;20105;-86
2023/02/10 08:02:39;;;;;;;1.05;0.98;;;;;;;;;;5095200;28;20048;-88
2023/02/10 08:05:07;;;;;;;1.05;1.02;;;;;;;;;;5091245;28;20048;-87
2023/02/10 08:07:33;;;;;;;2.40;2.30;;;;;;;;;;5092499;28;20517;-88
2023/02/10 08:10:00;;;;;;;4.25;3.95;;;;;;;;;;5092730;28;20051;-87
2023/02/10 08:12:26;;;;;;;2.08;1.98;;;;;;;;;;5093439;28;20048;-87
2023/02/10 08:14:53;;;;;;;3.45;3.25;;;;;;;;;;5088851;28;20047;-87
2023/02/10 08:17:21;;;;;;;2.45;2.28;;;;;;;;;;5091499;28;20059;-86
2023/02/10 08:19:47;;;;;;;3.88;3.15;;;;;;;;;;5092471;28;20040;-85
2023/02/10 08:22:14;;;;;;;2.17;2.08;;;;;;;;;;5092750;28;20048;-87
2023/02/10 08:24:40;;;;;;;2.17;2.00;;;;;;;;;;5092317;28;20055;-86
2023/02/10 08:27:07;;;;;;;1.65;1.45;;;;;;;;;;5092530;28;20455;-85
2023/02/10 08:29:33;;;;;;;2.75;2.55;;;;;;;;;;5077981;28;21171;-86
2023/02/10 08:32:00;;;;;;;1.80;1.70;;;;;;;;;;5082484;28;20121;-86
2023/02/10 08:34:28;;;;;;;2.63;2.33;;;;;;;;;;5075693;28;20117;-85
2023/02/10 08:36:54;;;;;;;1.75;1.65;;;;;;;;;;5084280;28;20147;-85
2023/02/10 08:39:21;;;;;;;2.55;2.35;;;;;;;;;;5091186;28;20048;-85
2023/02/10 08:41:48;;;;;;;4.30;3.30;;;;;;;;;;5091392;28;20465;-85
2023/02/10 08:44:14;;;;;;;2.08;1.98;;;;;;;;;;5092329;28;20089;-85
2023/02/10 08:46:41;;;;;;;1.92;1.83;;;;;;;;;;5091579;28;20044;-85
2023/02/10 08:49:07;;;;;;;3.92;3.63;;;;;;;;;;5086410;28;20481;-85
2023/02/10 08:51:38;;;;;;;1.83;1.73;;;;;;;;;;5091312;28;20052;-85
2023/02/10 08:54:05;;;;;;;2.47;2.28;;;;;;;;;;5092707;28;20052;-85
2023/02/10 08:56:31;;;;;;;2.53;2.35;;;;;;;;;;5089648;28;20463;-87
2023/02/10 08:58:58;;;;;;;1.95;1.85;;;;;;;;;;5092895;28;20093;-85
2023/02/10 09:01:26;;;;;;;3.97;3.60;;;;;;;;;;5091472;28;20071;-85
2023/02/10 09:03:53;;;;;;;6.97;3.33;;;;;;;;;;5092793;28;20044;-86
2023/02/10 09:06:20;;;;;;;2.28;2.17;;;;;;;;;;5092738;28;20048;-87
2023/02/10 09:08:49;;;;;;;1.65;1.55;;;;;;;;;;5088358;28;20040;-86
2023/02/10 09:11:16;;;;;;;2.25;2.15;;;;;;;;;;5089227;28;20067;-86
2023/02/10 09:13:43;;;;;;;2.97;2.78;;;;;;;;;;5093570;28;20109;-86
2023/02/10 09:16:09;;;;;;;3.33;3.13;;;;;;;;;;5092996;28;20097;-85
2023/02/10 09:18:36;;;;;;;2.22;2.13;;;;;;;;;;5093467;28;20052;-86
2023/02/10 09:21:02;;;;;;;2.40;1.83;;;;;;;;;;5093336;28;20044;-85
2023/02/10 09:23:29;;;;;;;1.17;1.08;;;;;;;;;;5093853;28;20052;-85
2023/02/10 09:25:58;;;;;;;2.10;1.98;;;;;;;;;;5086244;28;20045;-89
2023/02/10 09:28:25;;;;;;;2.33;2.13;;;;;;;;;;5090493;28;20048;-86
2023/02/10 09:30:52;;;;;;;2.85;2.65;;;;;;;;;;5089114;28;20043;-86
2023/02/10 09:33:19;;;;;;;3.28;3.03;;;;;;;;;;5092332;28;20101;-87
2023/02/10 09:35:45;;;;;;;2.78;2.28;;;;;;;;;;5092965;28;20565;-86
2023/02/10 09:38:13;;;;;;;2.08;1.98;;;;;;;;;;5085360;28;20495;-87
2023/02/10 09:40:47;;;;;;;1.00;1.00;;;;;;;;;;5093742;28;20125;-87
2023/02/10 09:43:25;;;;;;;2.35;2.15;;;;;;;;;;5094675;28;20078;-87
2023/02/10 09:45:56;;;;;;;3.72;3.42;;;;;;;;;;5096400;28;20036;-86
2023/02/10 09:48:28;;;;;;;3.05;2.85;;;;;;;;;;5097269;28;20047;-86
2023/02/10 09:51:02;;;;;;;2.97;2.80;;;;;;;;;;5096857;28;20040;-86
2023/02/10 09:53:31;;;;;;;1.55;1.45;;;;;;;;;;5103213;28;20059;-86
2023/02/10 09:55:59;;;;;;;2.33;2.22;;;;;;;;;;5103622;28;20078;-87
2023/02/10 09:58:31;;;;;;;3.50;3.22;;;;;;;;;;5093017;28;20066;-87
2023/02/10 10:00:59;;;;;;;4.00;3.10;;;;;;;;;;5098708;28;20044;-85
2023/02/10 10:03:29;;;;;;;4.57;4.28;;;;;;;;;;5096712;28;20058;-85
2023/02/10 10:06:01;;;;;;;2.58;2.47;;;;;;;;;;5096928;28;20139;-86
2023/02/10 10:08:30;;;;;;;3.80;3.33;;;;;;;;;;5097051;28;20448;-86
2023/02/10 10:10:59;;;;;;;4.00;3.78;;;;;;;;;;5097255;28;20052;-85
2023/02/10 10:13:28;;;;;;;2.08;1.98;;;;;;;;;;5097547;28;20052;-85
2023/02/10 10:16:10;;;;;;;3.38;3.15;;;;;;;;;;5097267;28;20196;-86
2023/02/10 10:18:42;;;;;;;2.72;2.58;;;;;;;;;;5097543;28;20048;-86
2023/02/10 10:21:12;;;;;;;3.33;3.00;;;;;;;;;;5097441;28;20044;-86
2023/02/10 10:23:44;;;;;;;2.53;2.40;;;;;;;;;;5093004;28;20477;-86
2023/02/10 10:26:15;;;;;;;2.55;2.35;;;;;;;;;;5096335;28;20518;-84
2023/02/10 10:28:48;;;;;;;4.68;3.95;;;;;;;;;;5096584;28;20052;-84
2023/02/10 10:31:17;;;;;;;5.15;4.72;;;;;;;;;;5096454;28;20040;-86
2023/02/10 10:33:46;;;;;;;2.75;2.63;;;;;;;;;;5096961;28;20587;-84
2023/02/10 10:36:14;;;;;;;3.72;3.47;;;;;;;;;;5094412;28;20048;-85
2023/02/10 10:38:43;;;;;;;5.47;4.53;;;;;;;;;;5096336;28;20105;-85
2023/02/10 10:41:12;;;;;;;3.63;3.42;;;;;;;;;;5090408;28;20052;-84
2023/02/10 10:43:47;;;;;;;1.15;1.15;;;;;;;;;;5095695;28;20649;-84
2023/02/10 10:46:15;;;;;;;1.92;1.83;;;;;;;;;;5085179;28;20446;-82
2023/02/10 10:48:45;;;;;;;3.13;2.83;;;;;;;;;;5095001;28;20106;-83
2023/02/10 10:51:13;;;;;;;3.50;2.55;;;;;;;;;;5095439;28;20048;-84
2023/02/10 10:53:41;;;;;;;2.13;1.98;;;;;;;;;;5095667;28;20051;-84
2023/02/10 10:56:13;;;;;;;5.05;4.65;;;;;;;;;;5087809;28;20048;-84
2023/02/10 10:58:42;;;;;;;2.15;2.05;;;;;;;;;;5075050;28;20052;-85
2023/02/10 11:01:09;;;;;;;2.10;2.00;;;;;;;;;;5075206;28;20049;-85
2023/02/10 11:03:35;;;;;;;2.30;2.05;;;;;;;;;;5075380;28;20052;-86
2023/02/10 11:06:05;;;;;;;7.90;3.17;;;;;;;;;;5074274;28;20052;-86
2023/02/10 11:08:34;;;;;;;3.85;2.60;;;;;;;;;;5081939;28;20052;-86
2023/02/10 11:11:02;;;;;;;2.15;2.05;;;;;;;;;;5095273;28;20040;-85
2023/02/10 11:13:30;;;;;;;3.55;3.25;;;;;;;;;;5086484;28;20063;-84
2023/02/10 11:16:02;;;;;;;2.30;2.17;;;;;;;;;;5093273;28;20089;-87
2023/02/10 11:18:28;;;;;;;5.07;4.22;;;;;;;;;;5093276;28;20062;-87
2023/02/10 11:20:56;;;;;;;3.85;3.45;;;;;;;;;;5095269;28;20040;-86
2023/02/10 11:23:25;;;;;;;4.03;3.10;;;;;;;;;;5094954;28;20465;-86
2023/02/10 11:26:02;;;;;;;4.03;3.58;;;;;;;;;;5096036;28;20047;-86
2023/02/10 11:28:29;;;;;;;3.40;3.08;;;;;;;;;;5095749;28;20056;-86
2023/02/10 11:30:57;;;;;;;3.63;1.98;;;;;;;;;;5088861;28;20485;-86
2023/02/10 11:33:25;;;;;;;3.80;3.50;;;;;;;;;;5095032;28;20105;-87
2023/02/10 11:35:53;;;;;;;2.88;2.72;;;;;;;;;;5095090;28;20044;-85
2023/02/10 11:38:20;;;;;;;3.30;3.10;;;;;;;;;;5095122;28;20131;-86
2023/02/10 11:40:53;;;;;;;6.55;2.60;;;;;;;;;;5095177;28;20040;-85
2023/02/10 11:43:20;;;;;;;3.85;3.40;;;;;;;;;;5094636;28;20044;-85
2023/02/10 11:45:54;;;;;;;5.18;2.33;;;;;;;;;;5092849;28;20413;-86
2023/02/10 11:48:21;;;;;;;5.10;4.20;;;;;;;;;;5076138;28;20052;-85
2023/02/10 11:50:48;;;;;;;4.18;3.88;;;;;;;;;;5094748;28;20062;-86
2023/02/10 11:53:22;;;;;;;3.70;3.40;;;;;;;;;;5094938;28;20093;-87
2023/02/10 11:55:53;;;;;;;4.13;3.30;;;;;;;;;;5089783;28;20136;-87
2023/02/10 12:01:21;;;;;;;3.58;3.25;;;;;;;;;;5094825;28;20207;-87
2023/02/10 12:03:54;;;;;;;3.95;3.65;;;;;;;;;;5094536;28;20090;-86
2023/02/10 12:06:24;;;;;;;2.17;2.08;;;;;;;;;;5094514;28;20381;-86
2023/02/10 12:08:58;;;;;;;2.45;2.28;;;;;;;;;;5097362;28;20458;-88
2023/02/10 12:11:37;;;;;;;3.70;3.53;;;;;;;;;;5109177;28;20481;-87
2023/02/10 12:14:24;;;;;;;3.30;3.03;;;;;;;;;;5104945;28;20055;-88
2023/02/10 12:16:56;;;;;;;3.70;3.40;;;;;;;;;;5103559;28;20128;-85
2023/02/10 12:19:27;;;;;;;3.90;3.55;;;;;;;;;;5090151;28;20048;-85
2023/02/10 12:22:02;;;;;;;3.08;2.88;;;;;;;;;;5094733;28;20044;-85
2023/02/10 12:24:46;;;;;;;2.15;2.03;;;;;;;;;;5093982;28;20507;-85
2023/02/10 12:27:17;;;;;;;2.60;2.45;;;;;;;;;;5093546;28;20051;-86
2023/02/10 12:29:52;;;;;;;8.05;3.17;;;;;;;;;;5086965;28;20059;-85
2023/02/10 12:32:24;;;;;;;2.58;2.47;;;;;;;;;;5092364;28;20500;-84
2023/02/10 12:35:11;;;;;;;4.45;2.03;;;;;;;;;;5094084;28;20052;-85
2023/02/10 12:37:42;;;;;;;1.52;1.42;;;;;;;;;;5087269;28;20105;-85
2023/02/10 12:40:24;;;;;;;2.00;1.77;;;;;;;;;;5094269;28;20048;-86
2023/02/10 12:42:55;;;;;;;3.28;2.97;;;;;;;;;;5093908;28;20432;-85
2023/02/10 12:45:29;;;;;;;2.05;1.95;;;;;;;;;;5093698;28;20052;-85
2023/02/10 12:48:01;;;;;;;3.45;1.67;;;;;;;;;;5091468;28;20203;-86
2023/02/10 12:50:38;;;;;;;5.20;4.70;;;;;;;;;;5093928;28;20090;-86
2023/02/10 12:53:11;;;;;;;2.35;2.22;;;;;;;;;;5093884;28;20093;-86
2023/02/10 12:55:42;;;;;;;4.18;3.40;;;;;;;;;;5094241;28;20052;-86
2023/02/10 12:58:08;;;;;;;;;;;;;;;;;;5094501;28;20048;-86
2023/02/10 13:00:38;;;;;;;2.10;2.00;;;;;;;;;;5094371;28;19924;-86
2023/02/10 13:03:08;;;;;;;1.85;1.75;;;;;;;;;;5094067;28;20074;-86
2023/02/10 13:05:39;;;;;;;2.75;2.60;;;;;;;;;;5093605;28;20633;-85
2023/02/10 13:08:09;;;;;;;3.92;2.70;;;;;;;;;;5094103;28;20451;-86
2023/02/10 13:10:37;;;;;;;4.75;3.40;;;;;;;;;;5077369;28;20048;-86
2023/02/10 13:13:06;;;;;;;2.55;2.33;;;;;;;;;;5093952;28;20055;-86
2023/02/10 13:15:35;;;;;;;3.35;2.85;;;;;;;;;;5093761;28;20063;-86
2023/02/10 13:18:03;;;;;;;1.92;1.83;;;;;;;;;;5093745;28;20051;-86
2023/02/10 13:20:47;;;;;;;3.28;3.08;;;;;;;;;;5098913;28;20051;-88
2023/02/10 13:23:20;;;;;;;2.72;2.53;;;;;;;;;;5088006;28;20048;-87
2023/02/10 13:26:03;;;;;;;3.22;2.75;;;;;;;;;;5097443;28;20048;-87
2023/02/10 13:28:36;;;;;;;3.70;3.50;;;;;;;;;;5096229;28;20052;-86
2023/02/10 13:31:13;;;;;;;2.97;2.80;;;;;;;;;;5099219;28;20056;-87
2023/02/10 13:33:45;;;;;;;3.13;2.97;;;;;;;;;;5095856;28;20040;-86
2023/02/10 13:36:15;;;;;;;2.72;2.17;;;;;;;;;;5096310;28;20460;-88
2023/02/10 13:38:41;;;;;;;4.35;3.05;;;;;;;;;;5093176;28;20101;-87
2023/02/10 13:44:17;;;;;;;4.05;3.63;;;;;;;;;;5073121;28;20071;-87
2023/02/10 13:46:47;;;;;;;3.85;3.55;;;;;;;;;;5077633;28;20056;-87
2023/02/10 13:49:17;;;;;;;7.15;3.20;;;;;;;;;;5093500;28;20431;-86
2023/02/10 13:51:43;;;;;;;3.72;3.53;;;;;;;;;;5092976;28;20056;-87
2023/02/10 13:54:23;;;;;;;2.28;2.17;;;;;;;;;;5089472;28;20097;-88
2023/02/10 13:56:53;;;;;;;4.68;4.28;;;;;;;;;;5092669;28;20044;-87
2023/02/10 13:59:29;;;;;;;3.70;3.45;;;;;;;;;;5092029;28;20047;-88
2023/02/10 14:02:03;;;;;;;5.07;2.80;;;;;;;;;;5093487;28;20056;-87
2023/02/10 14:04:37;;;;;;;3.75;3.55;;;;;;;;;;5093128;28;20047;-87
2023/02/10 14:07:14;;;;;;;4.18;3.90;;;;;;;;;;5093573;28;20117;-87
2023/02/10 14:09:40;;;;;;;4.30;3.97;;;;;;;;;;5093311;28;20125;-86
2023/02/10 14:12:24;;;;;;;4.78;3.42;;;;;;;;;;5092840;28;20558;-87
2023/02/10 14:14:50;;;;;;;3.50;3.30;;;;;;;;;;5078593;28;20044;-87
2023/02/10 14:17:20;;;;;;;4.10;2.33;;;;;;;;;;5092833;28;20039;-87
2023/02/10 14:19:51;;;;;;;2.30;2.17;;;;;;;;;;5093173;28;20071;-87
2023/02/10 14:22:22;;;;;;;4.00;3.70;;;;;;;;;;5092806;28;20066;-87
2023/02/10 14:24:49;;;;;;;2.17;2.08;;;;;;;;;;5092694;28;20052;-86
2023/02/10 14:27:16;;;;;;;4.38;4.15;;;;;;;;;;5092999;28;20048;-89
2023/02/10 14:29:48;;;;;;;1.90;1.80;;;;;;;;;;5092270;28;20055;-86
2023/02/10 14:32:15;;;;;;;3.60;3.40;;;;;;;;;;5092541;28;20048;-87
2023/02/10 14:34:41;;;;;;;2.72;2.22;;;;;;;;;;5093168;28;20052;-87
2023/02/10 14:37:16;;;;;;;4.22;4.00;;;;;;;;;;5092927;28;20051;-87
2023/02/10 14:39:50;;;;;;;5.95;1.70;;;;;;;;;;5093150;28;20044;-86
2023/02/10 14:42:16;;;;;;;3.45;3.25;;;;;;;;;;5092200;28;20048;-86
2023/02/10 14:44:46;;;;;;;2.60;2.45;;;;;;;;;;5092535;28;20044;-87
2023/02/10 14:47:16;;;;;;;2.22;1.73;;;;;;;;;;5086276;28;20048;-86
2023/02/10 14:49:42;;;;;;;2.17;2.05;;;;;;;;;;5078525;28;20569;-86
2023/02/10 14:52:21;;;;;;;3.78;3.47;;;;;;;;;;5092998;28;20052;-87
2023/02/10 14:54:48;;;;;;;6.50;5.30;;;;;;;;;;5095731;28;20093;-87
2023/02/10 14:57:16;;;;;;;2.78;2.05;;;;;;;;;;5096854;28;20545;-88